sensor_id;sensor_type;location;lat;lon;timestamp;temperature;humidity
26081;DHT22;13991;51.174;4.438;2023-12-20T00:01:36;8.40;99.90
26081;DHT22;13991;51.174;4.438;2023-12-20T00:04:02;8.30;99.90
26081;DHT22;13991;51.174;4.438;2023-12-20T00:06:28;8.30;99.90
26081;DHT22;13991;51.174;4.438;2023-12-20T00:08:53;8.40;99.90
26081;DHT22;13991;51.174;4.438;2023-12-20T00:11:19;8.40;99.90
26081;DHT22;13991;51.174;4.438;2023-12-20T00:13:45;8.40;99.90
26081;DHT22;13991;51.174;4.438;2023-12-20T00:16:10;8.30;99.90
26081;DHT22;13991;51.174;4.438;2023-12-20T00:18:36;8.20;99.90
26081;DHT22;13991;51.174;4.438;2023-12-20T00:21:02;8.30;99.90
26081;DHT22;13991;51.174;4.438;2023-12-20T00:23:27;8.20;99.90
26081;DHT22;13991;51.174;4.438;2023-12-20T00:25:53;8.20;99.90
26081;DHT22;13991;51.174;4.438;2023-12-20T00:28:19;8.30;99.90
26081;DHT22;13991;51.174;4.438;2023-12-20T00:30:44;8.30;99.90
26081;DHT22;13991;51.174;4.438;2023-12-20T00:33:10;8.30;99.90
26081;DHT22;13991;51.174;4.438;2023-12-20T00:35:35;8.30;99.90
26081;DHT22;13991;51.174;4.438;2023-12-20T00:38:01;8.30;99.90
26081;DHT22;13991;51.174;4.438;2023-12-20T00:40:27;8.20;99.90
26081;DHT22;13991;51.174;4.438;2023-12-20T00:42:53;8.10;99.90
26081;DHT22;13991;51.174;4.438;2023-12-20T00:45:18;8.10;99.90
26081;DHT22;13991;51.174;4.438;2023-12-20T00:47:45;8.10;99.90
26081;DHT22;13991;51.174;4.438;2023-12-20T00:50:10;8.10;99.90
26081;DHT22;13991;51.174;4.438;2023-12-20T00:52:36;8.20;99.90
26081;DHT22;13991;51.174;4.438;2023-12-20T00:55:02;8.20;99.90
26081;DHT22;13991;51.174;4.438;2023-12-20T00:57:29;8.20;99.90
26081;DHT22;13991;51.174;4.438;2023-12-20T00:59:54;8.20;99.90
26081;DHT22;13991;51.174;4.438;2023-12-20T01:02:20;8.10;99.90
26081;DHT22;13991;51.174;4.438;2023-12-20T01:04:46;8.10;99.90
26081;DHT22;13991;51.174;4.438;2023-12-20T01:07:12;8.10;99.90
26081;DHT22;13991;51.174;4.438;2023-12-20T01:09:38;8.10;99.90
26081;DHT22;13991;51.174;4.438;2023-12-20T01:12:03;8.10;99.90
26081;DHT22;13991;51.174;4.438;2023-12-20T01:14:29;8.20;99.90
26081;DHT22;13991;51.174;4.438;2023-12-20T01:16:55;8.10;99.90
26081;DHT22;13991;51.174;4.438;2023-12-20T01:19:20;8.10;99.90
26081;DHT22;13991;51.174;4.438;2023-12-20T01:21:46;8.10;99.90
26081;DHT22;13991;51.174;4.438;2023-12-20T01:24:12;8.10;99.90
26081;DHT22;13991;51.174;4.438;2023-12-20T01:26:38;8.00;99.90
26081;DHT22;13991;51.174;4.438;2023-12-20T01:29:03;8.00;99.90
26081;DHT22;13991;51.174;4.438;2023-12-20T01:31:29;7.90;99.90
26081;DHT22;13991;51.174;4.438;2023-12-20T01:33:55;8.00;99.90
26081;DHT22;13991;51.174;4.438;2023-12-20T01:36:20;8.00;99.90
26081;DHT22;13991;51.174;4.438;2023-12-20T01:38:46;8.00;99.90
26081;DHT22;13991;51.174;4.438;2023-12-20T01:41:11;8.00;99.90
26081;DHT22;13991;51.174;4.438;2023-12-20T01:43:37;8.00;99.90
26081;DHT22;13991;51.174;4.438;2023-12-20T01:46:03;8.00;99.90
26081;DHT22;13991;51.174;4.438;2023-12-20T01:48:29;8.00;99.90
26081;DHT22;13991;51.174;4.438;2023-12-20T01:50:58;8.00;99.90
26081;DHT22;13991;51.174;4.438;2023-12-20T01:53:25;7.90;99.90
26081;DHT22;13991;51.174;4.438;2023-12-20T01:55:54;7.90;99.90
26081;DHT22;13991;51.174;4.438;2023-12-20T01:58:20;7.90;99.90
26081;DHT22;13991;51.174;4.438;2023-12-20T02:00:46;7.90;99.90
26081;DHT22;13991;51.174;4.438;2023-12-20T02:03:12;7.90;99.90
26081;DHT22;13991;51.174;4.438;2023-12-20T02:05:38;8.00;99.90
26081;DHT22;13991;51.174;4.438;2023-12-20T02:08:04;8.00;99.90
26081;DHT22;13991;51.174;4.438;2023-12-20T02:10:31;8.10;99.90
26081;DHT22;13991;51.174;4.438;2023-12-20T02:12:57;8.10;99.90
26081;DHT22;13991;51.174;4.438;2023-12-20T02:15:23;8.20;99.90
26081;DHT22;13991;51.174;4.438;2023-12-20T02:17:49;8.30;99.90
26081;DHT22;13991;51.174;4.438;2023-12-20T02:20:15;8.30;99.90
26081;DHT22;13991;51.174;4.438;2023-12-20T02:22:40;8.20;99.90
26081;DHT22;13991;51.174;4.438;2023-12-20T02:25:06;8.30;99.90
26081;DHT22;13991;51.174;4.438;2023-12-20T02:27:32;8.30;99.90
26081;DHT22;13991;51.174;4.438;2023-12-20T02:29:58;8.40;99.90
26081;DHT22;13991;51.174;4.438;2023-12-20T02:32:24;8.40;99.90
26081;DHT22;13991;51.174;4.438;2023-12-20T02:34:55;8.30;99.90
26081;DHT22;13991;51.174;4.438;2023-12-20T02:37:21;8.30;99.90
26081;DHT22;13991;51.174;4.438;2023-12-20T02:39:46;8.30;99.90
26081;DHT22;13991;51.174;4.438;2023-12-20T02:42:12;8.30;99.90
26081;DHT22;13991;51.174;4.438;2023-12-20T02:44:38;8.30;99.90
26081;DHT22;13991;51.174;4.438;2023-12-20T02:47:04;8.30;99.90
26081;DHT22;13991;51.174;4.438;2023-12-20T02:49:29;8.30;99.90
26081;DHT22;13991;51.174;4.438;2023-12-20T02:51:55;8.30;99.90
26081;DHT22;13991;51.174;4.438;2023-12-20T02:54:21;8.30;99.90
26081;DHT22;13991;51.174;4.438;2023-12-20T02:56:47;8.40;99.90
26081;DHT22;13991;51.174;4.438;2023-12-20T02:59:12;8.40;99.90
26081;DHT22;13991;51.174;4.438;2023-12-20T03:01:47;8.40;99.90
26081;DHT22;13991;51.174;4.438;2023-12-20T03:04:13;8.30;99.90
26081;DHT22;13991;51.174;4.438;2023-12-20T03:06:38;8.30;99.90
26081;DHT22;13991;51.174;4.438;2023-12-20T03:09:04;8.30;99.90
26081;DHT22;13991;51.174;4.438;2023-12-20T03:11:30;8.20;99.90
26081;DHT22;13991;51.174;4.438;2023-12-20T03:13:56;8.20;99.90
26081;DHT22;13991;51.174;4.438;2023-12-20T03:16:22;8.20;99.90
26081;DHT22;13991;51.174;4.438;2023-12-20T03:18:48;8.30;99.90
26081;DHT22;13991;51.174;4.438;2023-12-20T03:21:14;8.20;99.90
26081;DHT22;13991;51.174;4.438;2023-12-20T03:23:40;8.30;99.90
26081;DHT22;13991;51.174;4.438;2023-12-20T03:26:09;8.30;99.90
26081;DHT22;13991;51.174;4.438;2023-12-20T03:28:36;8.30;99.90
26081;DHT22;13991;51.174;4.438;2023-12-20T03:31:02;8.30;99.90
26081;DHT22;13991;51.174;4.438;2023-12-20T03:33:28;8.30;99.90
26081;DHT22;13991;51.174;4.438;2023-12-20T03:35:54;8.40;99.90
26081;DHT22;13991;51.174;4.438;2023-12-20T03:38:20;8.40;99.90
26081;DHT22;13991;51.174;4.438;2023-12-20T03:40:46;8.40;99.90
26081;DHT22;13991;51.174;4.438;2023-12-20T03:43:11;8.30;99.90
26081;DHT22;13991;51.174;4.438;2023-12-20T03:45:37;8.30;99.90
26081;DHT22;13991;51.174;4.438;2023-12-20T03:48:03;8.20;99.90
26081;DHT22;13991;51.174;4.438;2023-12-20T03:50:29;8.20;99.90
26081;DHT22;13991;51.174;4.438;2023-12-20T03:52:54;8.20;99.90
26081;DHT22;13991;51.174;4.438;2023-12-20T03:55:20;8.10;99.90
26081;DHT22;13991;51.174;4.438;2023-12-20T03:57:45;8.20;99.90
26081;DHT22;13991;51.174;4.438;2023-12-20T04:00:11;8.10;99.90
26081;DHT22;13991;51.174;4.438;2023-12-20T04:02:41;8.10;99.90
26081;DHT22;13991;51.174;4.438;2023-12-20T04:05:07;8.10;99.90
26081;DHT22;13991;51.174;4.438;2023-12-20T04:07:33;8.10;99.90
26081;DHT22;13991;51.174;4.438;2023-12-20T04:09:59;8.00;99.90
26081;DHT22;13991;51.174;4.438;2023-12-20T04:12:26;8.10;99.90
26081;DHT22;13991;51.174;4.438;2023-12-20T04:14:51;8.10;99.90
26081;DHT22;13991;51.174;4.438;2023-12-20T04:17:17;8.00;99.90
26081;DHT22;13991;51.174;4.438;2023-12-20T04:19:43;8.00;99.90
26081;DHT22;13991;51.174;4.438;2023-12-20T04:22:09;8.00;99.90
26081;DHT22;13991;51.174;4.438;2023-12-20T04:24:34;8.10;99.90
26081;DHT22;13991;51.174;4.438;2023-12-20T04:27:01;8.10;99.90
26081;DHT22;13991;51.174;4.438;2023-12-20T04:29:26;8.10;99.90
26081;DHT22;13991;51.174;4.438;2023-12-20T04:31:52;8.00;99.90
26081;DHT22;13991;51.174;4.438;2023-12-20T04:34:18;8.00;99.90
26081;DHT22;13991;51.174;4.438;2023-12-20T04:36:44;8.10;99.90
26081;DHT22;13991;51.174;4.438;2023-12-20T04:39:12;8.10;99.90
26081;DHT22;13991;51.174;4.438;2023-12-20T04:41:38;8.20;99.90
26081;DHT22;13991;51.174;4.438;2023-12-20T04:44:04;8.20;99.90
26081;DHT22;13991;51.174;4.438;2023-12-20T04:46:29;8.30;99.90
26081;DHT22;13991;51.174;4.438;2023-12-20T04:48:55;8.20;99.90
26081;DHT22;13991;51.174;4.438;2023-12-20T04:51:21;8.20;99.90
26081;DHT22;13991;51.174;4.438;2023-12-20T04:53:47;8.20;99.90
26081;DHT22;13991;51.174;4.438;2023-12-20T04:56:12;8.10;99.90
26081;DHT22;13991;51.174;4.438;2023-12-20T04:58:38;8.10;99.90
26081;DHT22;13991;51.174;4.438;2023-12-20T05:01:05;8.00;99.90
26081;DHT22;13991;51.174;4.438;2023-12-20T05:03:31;8.00;99.90
26081;DHT22;13991;51.174;4.438;2023-12-20T05:05:57;8.00;99.90
26081;DHT22;13991;51.174;4.438;2023-12-20T05:08:23;8.00;99.90
26081;DHT22;13991;51.174;4.438;2023-12-20T05:10:51;8.00;99.90
26081;DHT22;13991;51.174;4.438;2023-12-20T05:13:17;7.90;99.90
26081;DHT22;13991;51.174;4.438;2023-12-20T05:15:42;7.80;99.90
26081;DHT22;13991;51.174;4.438;2023-12-20T05:18:08;7.90;99.90
26081;DHT22;13991;51.174;4.438;2023-12-20T05:20:34;7.90;99.90
26081;DHT22;13991;51.174;4.438;2023-12-20T05:22:59;7.90;99.90
26081;DHT22;13991;51.174;4.438;2023-12-20T05:25:25;7.90;99.90
26081;DHT22;13991;51.174;4.438;2023-12-20T05:27:50;8.00;99.90
26081;DHT22;13991;51.174;4.438;2023-12-20T05:30:16;8.00;99.90
26081;DHT22;13991;51.174;4.438;2023-12-20T05:32:42;8.00;99.90
26081;DHT22;13991;51.174;4.438;2023-12-20T05:35:07;8.00;99.90
26081;DHT22;13991;51.174;4.438;2023-12-20T05:37:33;8.10;99.90
26081;DHT22;13991;51.174;4.438;2023-12-20T05:39:59;8.10;99.90
26081;DHT22;13991;51.174;4.438;2023-12-20T05:42:24;8.20;99.90
26081;DHT22;13991;51.174;4.438;2023-12-20T05:44:50;8.30;99.90
26081;DHT22;13991;51.174;4.438;2023-12-20T05:47:15;8.20;99.90
26081;DHT22;13991;51.174;4.438;2023-12-20T05:49:43;8.20;99.90
26081;DHT22;13991;51.174;4.438;2023-12-20T05:52:08;8.20;99.90
26081;DHT22;13991;51.174;4.438;2023-12-20T05:54:34;8.20;99.90
26081;DHT22;13991;51.174;4.438;2023-12-20T05:56:59;8.20;99.90
26081;DHT22;13991;51.174;4.438;2023-12-20T05:59:26;8.20;99.90
26081;DHT22;13991;51.174;4.438;2023-12-20T06:01:51;8.30;99.90
26081;DHT22;13991;51.174;4.438;2023-12-20T06:04:17;8.30;99.90
26081;DHT22;13991;51.174;4.438;2023-12-20T06:06:43;8.20;99.90
26081;DHT22;13991;51.174;4.438;2023-12-20T06:09:09;8.20;99.90
26081;DHT22;13991;51.174;4.438;2023-12-20T06:11:35;8.20;99.90
26081;DHT22;13991;51.174;4.438;2023-12-20T06:14:00;8.30;99.90
26081;DHT22;13991;51.174;4.438;2023-12-20T06:16:26;8.30;99.90
26081;DHT22;13991;51.174;4.438;2023-12-20T06:18:52;8.40;99.90
26081;DHT22;13991;51.174;4.438;2023-12-20T06:21:18;8.40;99.90
26081;DHT22;13991;51.174;4.438;2023-12-20T06:23:43;8.30;99.90
26081;DHT22;13991;51.174;4.438;2023-12-20T06:26:09;8.30;99.90
26081;DHT22;13991;51.174;4.438;2023-12-20T06:28:34;8.30;99.90
26081;DHT22;13991;51.174;4.438;2023-12-20T06:31:00;8.20;99.90
26081;DHT22;13991;51.174;4.438;2023-12-20T06:33:26;8.20;99.90
26081;DHT22;13991;51.174;4.438;2023-12-20T06:35:52;8.20;99.90
26081;DHT22;13991;51.174;4.438;2023-12-20T06:38:18;8.20;99.90
26081;DHT22;13991;51.174;4.438;2023-12-20T06:40:44;8.20;99.90
26081;DHT22;13991;51.174;4.438;2023-12-20T06:43:11;8.20;99.90
26081;DHT22;13991;51.174;4.438;2023-12-20T06:45:37;8.30;99.90
26081;DHT22;13991;51.174;4.438;2023-12-20T06:48:03;8.30;99.90
26081;DHT22;13991;51.174;4.438;2023-12-20T06:50:29;8.30;99.90
26081;DHT22;13991;51.174;4.438;2023-12-20T06:52:54;8.30;99.90
26081;DHT22;13991;51.174;4.438;2023-12-20T06:55:20;8.20;99.90
26081;DHT22;13991;51.174;4.438;2023-12-20T06:57:46;8.20;99.90
26081;DHT22;13991;51.174;4.438;2023-12-20T07:00:12;8.20;99.90
26081;DHT22;13991;51.174;4.438;2023-12-20T07:02:37;8.30;99.90
26081;DHT22;13991;51.174;4.438;2023-12-20T07:05:03;8.30;99.90
26081;DHT22;13991;51.174;4.438;2023-12-20T07:07:29;8.40;99.90
26081;DHT22;13991;51.174;4.438;2023-12-20T07:09:55;8.40;99.90
26081;DHT22;13991;51.174;4.438;2023-12-20T07:12:21;8.50;99.90
26081;DHT22;13991;51.174;4.438;2023-12-20T07:14:46;8.40;99.90
26081;DHT22;13991;51.174;4.438;2023-12-20T07:17:13;8.30;99.90
26081;DHT22;13991;51.174;4.438;2023-12-20T07:19:40;8.30;99.90
26081;DHT22;13991;51.174;4.438;2023-12-20T07:22:06;8.20;99.90
26081;DHT22;13991;51.174;4.438;2023-12-20T07:24:33;8.30;99.90
26081;DHT22;13991;51.174;4.438;2023-12-20T07:27:02;8.30;99.90
26081;DHT22;13991;51.174;4.438;2023-12-20T07:29:28;8.20;99.90
26081;DHT22;13991;51.174;4.438;2023-12-20T07:31:54;8.10;99.90
26081;DHT22;13991;51.174;4.438;2023-12-20T07:34:20;8.00;99.90
26081;DHT22;13991;51.174;4.438;2023-12-20T07:36:46;8.10;99.90
26081;DHT22;13991;51.174;4.438;2023-12-20T07:39:12;7.90;99.90
26081;DHT22;13991;51.174;4.438;2023-12-20T07:41:38;7.90;99.90
26081;DHT22;13991;51.174;4.438;2023-12-20T07:44:04;7.90;99.90
26081;DHT22;13991;51.174;4.438;2023-12-20T07:46:30;7.90;99.90
26081;DHT22;13991;51.174;4.438;2023-12-20T07:48:55;7.90;99.90
26081;DHT22;13991;51.174;4.438;2023-12-20T07:51:21;7.80;99.90
26081;DHT22;13991;51.174;4.438;2023-12-20T07:53:47;7.80;99.90
26081;DHT22;13991;51.174;4.438;2023-12-20T07:56:16;7.80;99.90
26081;DHT22;13991;51.174;4.438;2023-12-20T07:58:42;7.80;99.90
26081;DHT22;13991;51.174;4.438;2023-12-20T08:01:08;7.90;99.90
26081;DHT22;13991;51.174;4.438;2023-12-20T08:03:33;7.80;99.90
26081;DHT22;13991;51.174;4.438;2023-12-20T08:05:59;7.80;99.90
26081;DHT22;13991;51.174;4.438;2023-12-20T08:08:26;7.90;99.90
26081;DHT22;13991;51.174;4.438;2023-12-20T08:10:51;7.90;99.90
26081;DHT22;13991;51.174;4.438;2023-12-20T08:13:17;7.90;99.90
26081;DHT22;13991;51.174;4.438;2023-12-20T08:15:43;8.00;99.90
26081;DHT22;13991;51.174;4.438;2023-12-20T08:18:09;8.00;99.90
26081;DHT22;13991;51.174;4.438;2023-12-20T08:20:34;8.00;99.90
26081;DHT22;13991;51.174;4.438;2023-12-20T08:23:00;7.90;99.90
26081;DHT22;13991;51.174;4.438;2023-12-20T08:25:26;7.90;99.90
26081;DHT22;13991;51.174;4.438;2023-12-20T08:27:52;7.90;99.90
26081;DHT22;13991;51.174;4.438;2023-12-20T08:30:18;7.90;99.90
26081;DHT22;13991;51.174;4.438;2023-12-20T08:32:47;7.90;99.90
26081;DHT22;13991;51.174;4.438;2023-12-20T08:35:13;8.00;99.90
26081;DHT22;13991;51.174;4.438;2023-12-20T08:37:39;8.00;99.90
26081;DHT22;13991;51.174;4.438;2023-12-20T08:40:05;8.00;99.90
26081;DHT22;13991;51.174;4.438;2023-12-20T08:42:31;8.00;99.90
26081;DHT22;13991;51.174;4.438;2023-12-20T08:45:00;8.00;99.90
26081;DHT22;13991;51.174;4.438;2023-12-20T08:47:25;7.90;99.90
26081;DHT22;13991;51.174;4.438;2023-12-20T08:49:51;8.00;99.90
26081;DHT22;13991;51.174;4.438;2023-12-20T08:52:24;8.00;99.90
26081;DHT22;13991;51.174;4.438;2023-12-20T08:54:50;8.00;99.90
26081;DHT22;13991;51.174;4.438;2023-12-20T08:57:22;8.00;99.90
26081;DHT22;13991;51.174;4.438;2023-12-20T08:59:51;8.00;99.90
26081;DHT22;13991;51.174;4.438;2023-12-20T09:02:17;8.10;99.90
26081;DHT22;13991;51.174;4.438;2023-12-20T09:04:43;8.20;99.90
26081;DHT22;13991;51.174;4.438;2023-12-20T09:07:22;8.20;99.90
26081;DHT22;13991;51.174;4.438;2023-12-20T09:09:48;8.10;99.90
26081;DHT22;13991;51.174;4.438;2023-12-20T09:12:14;8.20;99.90
26081;DHT22;13991;51.174;4.438;2023-12-20T09:14:40;8.20;99.90
26081;DHT22;13991;51.174;4.438;2023-12-20T09:17:06;8.20;99.90
26081;DHT22;13991;51.174;4.438;2023-12-20T09:19:34;8.20;99.90
26081;DHT22;13991;51.174;4.438;2023-12-20T09:22:00;8.30;99.90
26081;DHT22;13991;51.174;4.438;2023-12-20T09:24:26;8.30;99.90
26081;DHT22;13991;51.174;4.438;2023-12-20T09:26:51;8.40;99.90
26081;DHT22;13991;51.174;4.438;2023-12-20T09:29:17;8.40;99.90
26081;DHT22;13991;51.174;4.438;2023-12-20T09:31:44;8.60;99.90
26081;DHT22;13991;51.174;4.438;2023-12-20T09:34:11;8.70;99.90
26081;DHT22;13991;51.174;4.438;2023-12-20T09:36:37;8.80;99.90
26081;DHT22;13991;51.174;4.438;2023-12-20T09:39:06;8.80;99.90
26081;DHT22;13991;51.174;4.438;2023-12-20T09:41:33;8.80;99.90
26081;DHT22;13991;51.174;4.438;2023-12-20T09:44:02;8.80;99.90
26081;DHT22;13991;51.174;4.438;2023-12-20T09:46:29;8.90;99.90
26081;DHT22;13991;51.174;4.438;2023-12-20T09:48:59;9.00;99.90
26081;DHT22;13991;51.174;4.438;2023-12-20T09:51:28;9.10;99.90
26081;DHT22;13991;51.174;4.438;2023-12-20T09:53:54;9.20;99.90
26081;DHT22;13991;51.174;4.438;2023-12-20T09:56:21;9.30;99.90
26081;DHT22;13991;51.174;4.438;2023-12-20T09:58:47;9.40;99.90
26081;DHT22;13991;51.174;4.438;2023-12-20T10:01:14;9.50;99.90
26081;DHT22;13991;51.174;4.438;2023-12-20T10:03:41;9.60;99.90
26081;DHT22;13991;51.174;4.438;2023-12-20T10:06:07;9.60;99.90
26081;DHT22;13991;51.174;4.438;2023-12-20T10:08:32;9.70;99.90
26081;DHT22;13991;51.174;4.438;2023-12-20T10:10:58;9.70;99.90
26081;DHT22;13991;51.174;4.438;2023-12-20T10:13:28;9.60;99.90
26081;DHT22;13991;51.174;4.438;2023-12-20T10:15:55;9.60;99.90
26081;DHT22;13991;51.174;4.438;2023-12-20T10:18:20;9.60;99.90
26081;DHT22;13991;51.174;4.438;2023-12-20T10:20:47;9.60;99.90
26081;DHT22;13991;51.174;4.438;2023-12-20T10:23:13;9.60;99.90
26081;DHT22;13991;51.174;4.438;2023-12-20T10:25:40;9.60;99.90
26081;DHT22;13991;51.174;4.438;2023-12-20T10:28:14;9.60;99.90
26081;DHT22;13991;51.174;4.438;2023-12-20T10:30:42;9.70;99.90
26081;DHT22;13991;51.174;4.438;2023-12-20T10:33:09;9.60;99.90
26081;DHT22;13991;51.174;4.438;2023-12-20T10:35:35;9.60;99.90
26081;DHT22;13991;51.174;4.438;2023-12-20T10:38:04;9.60;99.90
26081;DHT22;13991;51.174;4.438;2023-12-20T10:40:32;9.70;99.90
26081;DHT22;13991;51.174;4.438;2023-12-20T10:43:00;9.70;99.90
26081;DHT22;13991;51.174;4.438;2023-12-20T10:45:26;9.60;99.90
26081;DHT22;13991;51.174;4.438;2023-12-20T10:47:52;9.60;99.90
26081;DHT22;13991;51.174;4.438;2023-12-20T10:50:19;9.60;99.90
26081;DHT22;13991;51.174;4.438;2023-12-20T10:52:46;9.60;99.90
26081;DHT22;13991;51.174;4.438;2023-12-20T10:55:12;9.60;99.90
26081;DHT22;13991;51.174;4.438;2023-12-20T10:57:38;9.60;99.90
26081;DHT22;13991;51.174;4.438;2023-12-20T11:00:06;9.60;99.90
26081;DHT22;13991;51.174;4.438;2023-12-20T11:02:39;9.50;99.90
26081;DHT22;13991;51.174;4.438;2023-12-20T11:08:15;9.60;99.90
26081;DHT22;13991;51.174;4.438;2023-12-20T11:13:32;9.60;99.90
26081;DHT22;13991;51.174;4.438;2023-12-20T11:16:00;9.60;99.90
26081;DHT22;13991;51.174;4.438;2023-12-20T11:18:32;9.50;99.90
26081;DHT22;13991;51.174;4.438;2023-12-20T11:21:06;9.50;99.90
26081;DHT22;13991;51.174;4.438;2023-12-20T11:23:32;9.50;99.90
26081;DHT22;13991;51.174;4.438;2023-12-20T11:25:59;9.40;99.90
26081;DHT22;13991;51.174;4.438;2023-12-20T11:28:26;9.40;99.90
26081;DHT22;13991;51.174;4.438;2023-12-20T11:30:54;9.40;99.90
26081;DHT22;13991;51.174;4.438;2023-12-20T11:33:31;9.50;99.90
26081;DHT22;13991;51.174;4.438;2023-12-20T11:36:00;9.40;99.90
26081;DHT22;13991;51.174;4.438;2023-12-20T11:38:26;9.50;99.90
26081;DHT22;13991;51.174;4.438;2023-12-20T11:40:54;9.50;99.90
26081;DHT22;13991;51.174;4.438;2023-12-20T11:43:38;9.40;99.90
26081;DHT22;13991;51.174;4.438;2023-12-20T11:46:08;9.40;99.90
26081;DHT22;13991;51.174;4.438;2023-12-20T11:48:36;9.40;99.90
26081;DHT22;13991;51.174;4.438;2023-12-20T11:51:02;9.40;99.90
26081;DHT22;13991;51.174;4.438;2023-12-20T11:53:29;9.40;99.90
26081;DHT22;13991;51.174;4.438;2023-12-20T11:55:56;9.50;99.90
26081;DHT22;13991;51.174;4.438;2023-12-20T11:58:22;9.50;99.90
26081;DHT22;13991;51.174;4.438;2023-12-20T12:00:49;9.60;99.90
26081;DHT22;13991;51.174;4.438;2023-12-20T12:03:15;9.70;99.90
26081;DHT22;13991;51.174;4.438;2023-12-20T12:05:41;9.60;99.90
26081;DHT22;13991;51.174;4.438;2023-12-20T12:08:07;9.60;99.90
26081;DHT22;13991;51.174;4.438;2023-12-20T12:10:33;9.60;99.90
26081;DHT22;13991;51.174;4.438;2023-12-20T12:12:59;9.60;99.90
26081;DHT22;13991;51.174;4.438;2023-12-20T12:15:25;9.60;99.90
26081;DHT22;13991;51.174;4.438;2023-12-20T12:17:55;9.60;99.90
26081;DHT22;13991;51.174;4.438;2023-12-20T12:20:21;9.70;99.90
26081;DHT22;13991;51.174;4.438;2023-12-20T12:22:58;9.80;99.90
26081;DHT22;13991;51.174;4.438;2023-12-20T12:25:24;9.80;99.90
26081;DHT22;13991;51.174;4.438;2023-12-20T12:27:51;9.80;99.90
26081;DHT22;13991;51.174;4.438;2023-12-20T12:30:16;9.90;99.90
26081;DHT22;13991;51.174;4.438;2023-12-20T12:32:44;9.90;99.90
26081;DHT22;13991;51.174;4.438;2023-12-20T12:35:10;9.90;99.90
26081;DHT22;13991;51.174;4.438;2023-12-20T12:37:40;9.90;99.90
26081;DHT22;13991;51.174;4.438;2023-12-20T12:40:09;9.90;99.90
26081;DHT22;13991;51.174;4.438;2023-12-20T12:42:36;9.90;99.90
26081;DHT22;13991;51.174;4.438;2023-12-20T12:45:02;10.00;99.90
26081;DHT22;13991;51.174;4.438;2023-12-20T12:47:28;10.00;99.90
26081;DHT22;13991;51.174;4.438;2023-12-20T12:49:54;10.00;99.90
26081;DHT22;13991;51.174;4.438;2023-12-20T12:52:20;10.00;99.90
26081;DHT22;13991;51.174;4.438;2023-12-20T12:54:45;10.10;99.90
26081;DHT22;13991;51.174;4.438;2023-12-20T12:57:13;10.20;99.90
26081;DHT22;13991;51.174;4.438;2023-12-20T12:59:39;10.10;99.90
26081;DHT22;13991;51.174;4.438;2023-12-20T13:02:05;10.10;99.90
26081;DHT22;13991;51.174;4.438;2023-12-20T13:04:31;10.20;99.90
26081;DHT22;13991;51.174;4.438;2023-12-20T13:06:56;10.20;99.90
26081;DHT22;13991;51.174;4.438;2023-12-20T13:09:23;10.20;99.90
26081;DHT22;13991;51.174;4.438;2023-12-20T13:11:48;10.20;99.90
26081;DHT22;13991;51.174;4.438;2023-12-20T13:14:14;10.30;99.90
26081;DHT22;13991;51.174;4.438;2023-12-20T13:16:42;10.30;99.90
26081;DHT22;13991;51.174;4.438;2023-12-20T13:19:08;10.30;99.90
26081;DHT22;13991;51.174;4.438;2023-12-20T13:21:34;10.30;99.90
26081;DHT22;13991;51.174;4.438;2023-12-20T13:23:59;10.40;99.90
26081;DHT22;13991;51.174;4.438;2023-12-20T13:26:25;10.40;99.90
26081;DHT22;13991;51.174;4.438;2023-12-20T13:28:50;10.40;99.90
26081;DHT22;13991;51.174;4.438;2023-12-20T13:31:16;10.40;99.90
26081;DHT22;13991;51.174;4.438;2023-12-20T13:33:42;10.50;99.90
26081;DHT22;13991;51.174;4.438;2023-12-20T13:36:07;10.50;99.90
26081;DHT22;13991;51.174;4.438;2023-12-20T13:38:34;10.50;99.90
26081;DHT22;13991;51.174;4.438;2023-12-20T13:40:59;10.50;99.90
26081;DHT22;13991;51.174;4.438;2023-12-20T13:43:25;10.50;99.90
26081;DHT22;13991;51.174;4.438;2023-12-20T13:45:50;10.50;99.90
26081;DHT22;13991;51.174;4.438;2023-12-20T13:48:16;10.70;99.90
26081;DHT22;13991;51.174;4.438;2023-12-20T13:50:42;10.70;99.90
26081;DHT22;13991;51.174;4.438;2023-12-20T13:53:07;10.70;99.90
26081;DHT22;13991;51.174;4.438;2023-12-20T13:55:33;10.70;99.90
26081;DHT22;13991;51.174;4.438;2023-12-20T13:57:59;10.70;99.90
26081;DHT22;13991;51.174;4.438;2023-12-20T14:00:25;10.60;99.90
26081;DHT22;13991;51.174;4.438;2023-12-20T14:02:50;10.60;99.90
26081;DHT22;13991;51.174;4.438;2023-12-20T14:05:16;10.70;99.90
26081;DHT22;13991;51.174;4.438;2023-12-20T14:07:45;10.70;99.90
26081;DHT22;13991;51.174;4.438;2023-12-20T14:10:12;10.60;99.90
26081;DHT22;13991;51.174;4.438;2023-12-20T14:12:39;10.60;99.90
26081;DHT22;13991;51.174;4.438;2023-12-20T14:15:05;10.60;99.90
26081;DHT22;13991;51.174;4.438;2023-12-20T14:17:37;10.70;99.90
26081;DHT22;13991;51.174;4.438;2023-12-20T14:20:07;10.60;99.90
26081;DHT22;13991;51.174;4.438;2023-12-20T14:22:34;10.60;99.90
26081;DHT22;13991;51.174;4.438;2023-12-20T14:25:00;10.70;99.90
26081;DHT22;13991;51.174;4.438;2023-12-20T14:27:26;10.70;99.90
26081;DHT22;13991;51.174;4.438;2023-12-20T14:29:54;10.70;99.90
26081;DHT22;13991;51.174;4.438;2023-12-20T14:32:20;10.70;99.90
26081;DHT22;13991;51.174;4.438;2023-12-20T14:34:45;10.80;99.90
26081;DHT22;13991;51.174;4.438;2023-12-20T14:37:11;10.80;99.90
26081;DHT22;13991;51.174;4.438;2023-12-20T14:39:37;10.80;99.90
26081;DHT22;13991;51.174;4.438;2023-12-20T14:42:10;10.70;99.90
26081;DHT22;13991;51.174;4.438;2023-12-20T14:44:42;10.80;99.90
26081;DHT22;13991;51.174;4.438;2023-12-20T14:47:07;10.90;99.90
26081;DHT22;13991;51.174;4.438;2023-12-20T14:49:33;10.70;99.90
26081;DHT22;13991;51.174;4.438;2023-12-20T14:51:59;10.80;99.90
26081;DHT22;13991;51.174;4.438;2023-12-20T14:54:25;10.70;99.90
26081;DHT22;13991;51.174;4.438;2023-12-20T14:56:51;10.80;99.90
26081;DHT22;13991;51.174;4.438;2023-12-20T14:59:17;10.70;99.90
26081;DHT22;13991;51.174;4.438;2023-12-20T15:01:43;10.70;99.90
26081;DHT22;13991;51.174;4.438;2023-12-20T15:04:10;10.70;99.90
26081;DHT22;13991;51.174;4.438;2023-12-20T15:06:36;10.70;99.90
26081;DHT22;13991;51.174;4.438;2023-12-20T15:09:02;10.70;99.90
26081;DHT22;13991;51.174;4.438;2023-12-20T15:11:30;10.70;99.90
26081;DHT22;13991;51.174;4.438;2023-12-20T15:13:56;10.80;99.90
26081;DHT22;13991;51.174;4.438;2023-12-20T15:16:22;10.80;99.90
26081;DHT22;13991;51.174;4.438;2023-12-20T15:18:48;10.90;99.90
26081;DHT22;13991;51.174;4.438;2023-12-20T15:21:15;10.90;99.90
26081;DHT22;13991;51.174;4.438;2023-12-20T15:23:41;10.90;99.90
26081;DHT22;13991;51.174;4.438;2023-12-20T15:26:20;10.80;99.90
26081;DHT22;13991;51.174;4.438;2023-12-20T15:28:46;10.80;99.90
26081;DHT22;13991;51.174;4.438;2023-12-20T15:31:13;10.80;99.90
26081;DHT22;13991;51.174;4.438;2023-12-20T15:33:39;10.80;99.90
26081;DHT22;13991;51.174;4.438;2023-12-20T15:36:06;10.90;99.90
26081;DHT22;13991;51.174;4.438;2023-12-20T15:38:31;10.90;99.90
26081;DHT22;13991;51.174;4.438;2023-12-20T15:40:57;10.80;99.90
26081;DHT22;13991;51.174;4.438;2023-12-20T15:43:23;10.70;99.90